Terminal Aerodrome Forecast
Issued by NWS Cleveland, OH

Home | Current Version | Previous Version | Graphics & Text | Print | Product List | Glossary On
Versions: 1 2 3 4 5 6 7 8 9 10 11 12 13 14 15 16 17 18 19 20
000
FTUS41 KCLE 130900 AAA
TAFERI
TAF AMD
KERI 130938Z 1310/1406 09005KT P6SM OVC025
      TEMPO 1310/1313 SCT025 OVC035
     FM131300 25010G20KT 6SM -SHRA BKN015 OVC025
     FM131700 27015G25KT P6SM VCSH OVC025
     FM140100 33006KT P6SM BKN035=

USA.gov is the U.S. government's official web portal to all federal, state and local government web resources and services.